This is the latest recevied weather packets stored in our database for station/object ENST. If no packets are shown the sender has not sent any weather packets the latest 10 day(s).
| Time | Temp. | Humidity | Pressure | Rain* | Wind** | Luminosity | Snow |
|---|---|---|---|---|---|---|---|
| 1777975387 | 1.67° C | 86% | 1003 hPa | - | - | - | - |
| 1777973586 | 1.67° C | 86% | 1003 hPa | - | - | - | - |
| 1777971787 | 5° C | 65% | 1002 hPa | - | - | - | - |
| 1777969986 | 3.89° C | 64% | 1002 hPa | - | - | - | - |
| 1777968187 | 3.89° C | 64% | 1002 hPa | - | - | - | - |
| 1777966386 | 3.89° C | 75% | 1002 hPa | - | - | - | - |
| 1777964587 | 2.78° C | 74% | 1002 hPa | - | - | - | - |
| 1777962786 | 0.56° C | 86% | 1002 hPa | - | - | - | - |
| 1777960986 | 0.56° C | 86% | 1002 hPa | - | - | - | - |
| 1777959189 | 1.67° C | 80% | 1002 hPa | - | - | - | - |
| 1777957386 | 2.78° C | 80% | 1001 hPa | - | - | - | - |
| 1777955586 | 1.67° C | 80% | 1001 hPa | - | - | - | - |
| 1777953786 | 1.67° C | 80% | 1001 hPa | - | - | - | - |
| 1777951986 | 0.56° C | 80% | 1001 hPa | - | - | - | - |
| 1777950186 | 0.56° C | 80% | 1001 hPa | - | - | - | - |
| 1777948386 | 2.78° C | 74% | 1001 hPa | - | - | - | - |
| 1777946586 | 1.67° C | 74% | 1001 hPa | - | - | - | - |
| 1777944786 | 0.56° C | 80% | 1001 hPa | - | - | - | - |
| 1777942987 | 0.56° C | 80% | 1001 hPa | - | - | - | - |
| 1777941186 | 0.56° C | 80% | 1001 hPa | - | - | - | - |
| 1777939386 | 1.67° C | 86% | 1001 hPa | - | - | - | - |
| 1777937587 | 2.78° C | 74% | 1001 hPa | - | - | - | - |
| 1777935788 | 3.89° C | 55% | 1001 hPa | - | - | - | - |
| 1777933987 | 3.89° C | 64% | 1001 hPa | - | - | - | - |
| 1777932207 | 3.89° C | 60% | 1001 hPa | - | - | - | - |
* Rain since midnight (hover to see other rain measurements)
** Current wind speed in m/s (hover to see current wind gust speed)